Time;durP1;ratioP1;P1;durP2;ratioP2;P2;SDS_P1;SDS_P2;PMS_P1;PMS_P2;Temp;Humidity;BMP_temperature;BMP_pressure;BME280_temperature;BME280_humidity;BME280_pressure;Samples;Min_cycle;Max_cycle;Signal;HPM_P1;HPM_P2
2021/12/29 00:02:01;;;;;;;6.75;2.08;;;;;;;;;;5143530;27;20205;-66
2021/12/29 00:04:28;;;;;;;9.30;2.20;;;;;;;;;;5143547;27;20194;-66
2021/12/29 00:06:56;;;;;;;6.75;1.52;;;;;;;;;;5143317;27;20228;-66
2021/12/29 00:09:24;;;;;;;7.47;1.67;;;;;;;;;;5143615;27;20198;-66
2021/12/29 00:11:50;;;;;;;8.82;2.00;;;;;;;;;;5143465;27;20490;-72
2021/12/29 00:14:17;;;;;;;4.85;1.40;;;;;;;;;;5115739;28;20210;-65
2021/12/29 00:16:43;;;;;;;7.70;1.85;;;;;;;;;;5116354;28;20268;-65
2021/12/29 00:19:10;;;;;;;3.58;1.55;;;;;;;;;;5117188;28;20205;-65
2021/12/29 00:21:37;;;;;;;6.20;1.42;;;;;;;;;;5117067;28;20529;-65
2021/12/29 00:24:05;;;;;;;7.97;1.23;;;;;;;;;;5116758;28;20204;-65
2021/12/29 00:26:33;;;;;;;4.43;1.60;;;;;;;;;;5116289;28;20223;-65
2021/12/29 00:29:00;;;;;;;3.85;1.15;;;;;;;;;;5117088;28;20206;-65
2021/12/29 00:31:27;;;;;;;6.50;1.35;;;;;;;;;;5116908;28;20248;-65
2021/12/29 00:33:53;;;;;;;7.40;1.88;;;;;;;;;;5116914;28;20454;-65
2021/12/29 00:36:20;;;;;;;6.47;1.52;;;;;;;;;;5116337;28;20207;-65
2021/12/29 00:38:46;;;;;;;6.20;1.50;;;;;;;;;;5117164;28;20546;-65
2021/12/29 00:41:12;;;;;;;5.82;1.20;;;;;;;;;;5116840;28;20467;-65
2021/12/29 00:43:40;;;;;;;5.25;1.40;;;;;;;;;;5117352;28;20207;-66
2021/12/29 00:46:08;;;;;;;6.00;1.20;;;;;;;;;;5116481;28;20231;-65
2021/12/29 00:48:38;;;;;;;3.10;1.20;;;;;;;;;;5117310;28;20199;-65
2021/12/29 00:51:05;;;;;;;6.40;1.60;;;;;;;;;;5117309;28;20218;-65
2021/12/29 00:53:31;;;;;;;5.00;1.40;;;;;;;;;;5119553;27;20404;-65
2021/12/29 00:55:57;;;;;;;2.42;1.38;;;;;;;;;;5120677;28;20203;-65
2021/12/29 00:58:24;;;;;;;5.15;1.67;;;;;;;;;;5121080;28;20518;-65
2021/12/29 01:00:52;;;;;;;4.95;1.77;;;;;;;;;;5121427;28;20213;-65
2021/12/29 01:03:19;;;;;;;5.28;1.58;;;;;;;;;;5123982;27;20202;-65
2021/12/29 01:05:45;;;;;;;10.88;1.42;;;;;;;;;;5141222;27;20218;-65
2021/12/29 01:08:12;;;;;;;3.67;1.38;;;;;;;;;;5130188;27;20529;-65
2021/12/29 01:10:38;;;;;;;6.28;1.02;;;;;;;;;;5120953;28;20206;-65
2021/12/29 01:13:06;;;;;;;4.22;1.20;;;;;;;;;;5120442;28;20207;-66
2021/12/29 01:15:37;;;;;;;4.70;1.23;;;;;;;;;;5120214;28;20203;-66
2021/12/29 01:18:06;;;;;;;5.03;0.98;;;;;;;;;;5131051;27;20561;-65
2021/12/29 01:20:33;;;;;;;3.97;1.17;;;;;;;;;;5141110;27;20206;-65
2021/12/29 01:23:01;;;;;;;5.30;1.40;;;;;;;;;;5123873;27;20207;-65
2021/12/29 01:25:28;;;;;;;5.15;1.25;;;;;;;;;;5119718;27;20254;-65
2021/12/29 01:27:55;;;;;;;3.85;1.10;;;;;;;;;;5120580;28;20399;-65
2021/12/29 01:30:21;;;;;;;3.35;0.93;;;;;;;;;;5119986;28;20200;-65
2021/12/29 01:32:48;;;;;;;2.58;1.00;;;;;;;;;;5119580;28;20207;-65
2021/12/29 01:35:16;;;;;;;7.88;1.27;;;;;;;;;;5119582;28;20195;-65
2021/12/29 01:37:43;;;;;;;2.88;1.05;;;;;;;;;;5120470;28;20222;-65
2021/12/29 01:40:10;;;;;;;5.68;1.05;;;;;;;;;;5120109;28;20226;-65
2021/12/29 01:42:37;;;;;;;3.40;0.88;;;;;;;;;;5121986;27;20214;-65
2021/12/29 01:45:04;;;;;;;2.03;0.90;;;;;;;;;;5122998;28;20230;-65
2021/12/29 01:47:32;;;;;;;2.55;0.98;;;;;;;;;;5125371;28;20203;-65
2021/12/29 01:50:00;;;;;;;4.78;1.00;;;;;;;;;;5125342;28;20276;-65
2021/12/29 01:52:33;;;;;;;2.67;0.80;;;;;;;;;;5125208;28;20199;-65
2021/12/29 01:54:59;;;;;;;4.68;0.90;;;;;;;;;;5124233;28;20183;-65
2021/12/29 01:57:26;;;;;;;2.72;0.88;;;;;;;;;;5125144;28;20202;-65
2021/12/29 01:59:52;;;;;;;2.83;0.80;;;;;;;;;;5125205;28;20406;-65
2021/12/29 02:02:20;;;;;;;2.95;0.90;;;;;;;;;;5125235;28;20257;-65
2021/12/29 02:04:47;;;;;;;2.50;0.80;;;;;;;;;;5124033;28;20203;-65
2021/12/29 02:07:13;;;;;;;2.65;0.70;;;;;;;;;;5125124;28;20226;-65
2021/12/29 02:09:41;;;;;;;2.63;1.13;;;;;;;;;;5125221;28;20196;-65
2021/12/29 02:12:08;;;;;;;2.50;0.93;;;;;;;;;;5124970;28;20203;-65
2021/12/29 02:14:35;;;;;;;4.82;0.98;;;;;;;;;;5124874;28;20195;-65
2021/12/29 02:17:01;;;;;;;2.03;0.68;;;;;;;;;;5124714;28;20191;-65
2021/12/29 02:19:28;;;;;;;6.90;0.70;;;;;;;;;;5124122;28;20238;-65
2021/12/29 02:22:03;;;;;;;2.08;0.90;;;;;;;;;;5125030;28;20202;-65
2021/12/29 02:24:38;;;;;;;1.58;0.82;;;;;;;;;;5124903;28;20187;-65
2021/12/29 02:27:06;;;;;;;4.00;1.05;;;;;;;;;;5124819;28;20206;-65
2021/12/29 02:29:32;;;;;;;2.97;1.00;;;;;;;;;;5124753;28;20195;-65
2021/12/29 02:31:59;;;;;;;3.95;0.68;;;;;;;;;;5124861;28;20623;-65
2021/12/29 02:34:25;;;;;;;2.85;0.80;;;;;;;;;;5124546;28;20195;-65
2021/12/29 02:36:51;;;;;;;2.55;0.85;;;;;;;;;;5124545;28;20191;-65
2021/12/29 02:39:21;;;;;;;1.83;0.98;;;;;;;;;;5124387;28;20556;-65
2021/12/29 02:41:50;;;;;;;3.88;0.82;;;;;;;;;;5124616;28;20491;-65
2021/12/29 02:44:21;;;;;;;2.65;0.73;;;;;;;;;;5124609;28;20210;-65
2021/12/29 02:46:47;;;;;;;3.42;0.75;;;;;;;;;;5124163;28;20418;-65
2021/12/29 02:49:14;;;;;;;1.58;0.82;;;;;;;;;;5124408;28;20195;-65
2021/12/29 02:51:40;;;;;;;1.80;0.70;;;;;;;;;;5124571;28;20207;-65
2021/12/29 02:54:07;;;;;;;1.85;0.65;;;;;;;;;;5124392;28;20195;-65
2021/12/29 02:56:35;;;;;;;0.75;0.47;;;;;;;;;;5124133;28;20252;-65
2021/12/29 02:59:01;;;;;;;2.10;0.70;;;;;;;;;;5124091;28;20214;-65
2021/12/29 03:01:28;;;;;;;3.25;0.50;;;;;;;;;;5124231;28;20491;-65
2021/12/29 03:03:55;;;;;;;1.60;0.50;;;;;;;;;;5123905;28;20195;-65
2021/12/29 03:06:22;;;;;;;3.00;0.82;;;;;;;;;;5123863;28;20219;-65
2021/12/29 03:08:48;;;;;;;0.47;0.40;;;;;;;;;;5123950;28;20526;-65
2021/12/29 03:11:15;;;;;;;1.20;0.45;;;;;;;;;;5124188;28;20498;-65
2021/12/29 03:13:42;;;;;;;0.47;0.40;;;;;;;;;;5123719;28;20195;-65
2021/12/29 03:16:09;;;;;;;1.23;0.43;;;;;;;;;;5123687;28;20186;-65
2021/12/29 03:18:36;;;;;;;1.65;0.52;;;;;;;;;;5123773;28;20216;-65
2021/12/29 03:21:03;;;;;;;0.60;0.60;;;;;;;;;;5123601;28;20202;-65
2021/12/29 03:23:30;;;;;;;1.00;0.60;;;;;;;;;;5123876;28;20203;-65
2021/12/29 03:25:57;;;;;;;1.58;0.60;;;;;;;;;;5123249;28;20215;-65
2021/12/29 03:28:24;;;;;;;0.47;0.40;;;;;;;;;;5123500;28;20191;-65
2021/12/29 03:30:54;;;;;;;0.77;0.55;;;;;;;;;;5123754;28;20389;-65
2021/12/29 03:33:21;;;;;;;1.85;0.40;;;;;;;;;;5123511;28;20206;-65
2021/12/29 03:35:48;;;;;;;1.48;0.40;;;;;;;;;;5123085;28;20202;-65
2021/12/29 03:38:16;;;;;;;2.35;0.70;;;;;;;;;;5123668;28;20390;-65
2021/12/29 03:40:43;;;;;;;0.43;0.43;;;;;;;;;;5123298;28;20195;-65
2021/12/29 03:43:10;;;;;;;0.73;0.60;;;;;;;;;;5123310;28;20198;-65
2021/12/29 03:45:37;;;;;;;1.23;0.50;;;;;;;;;;5122701;28;20216;-65
2021/12/29 03:48:05;;;;;;;1.65;0.45;;;;;;;;;;5123382;28;20202;-65
2021/12/29 03:50:32;;;;;;;0.70;0.43;;;;;;;;;;5123431;28;20194;-65
2021/12/29 03:52:58;;;;;;;1.10;0.50;;;;;;;;;;5123672;28;20298;-65
2021/12/29 03:55:25;;;;;;;0.20;0.20;;;;;;;;;;5123006;28;20196;-65
2021/12/29 03:57:51;;;;;;;1.25;0.50;;;;;;;;;;5123027;28;20199;-65
2021/12/29 04:00:18;;;;;;;1.45;0.75;;;;;;;;;;5123302;28;20183;-65
2021/12/29 04:02:45;;;;;;;3.13;0.50;;;;;;;;;;5122831;28;20195;-65
2021/12/29 04:05:14;;;;;;;1.15;0.50;;;;;;;;;;5122935;28;20203;-65
2021/12/29 04:07:40;;;;;;;2.33;0.52;;;;;;;;;;5122960;28;20227;-65
2021/12/29 04:10:08;;;;;;;2.70;0.77;;;;;;;;;;5122777;28;20202;-65
2021/12/29 04:12:35;;;;;;;0.77;0.40;;;;;;;;;;5122734;28;20194;-65
2021/12/29 04:15:01;;;;;;;3.08;0.90;;;;;;;;;;5122840;28;20201;-65
2021/12/29 04:17:36;;;;;;;1.85;0.60;;;;;;;;;;5122785;28;20389;-65
2021/12/29 04:22:48;;;;;;;2.28;0.55;;;;;;;;;;5123131;28;20213;-65
2021/12/29 04:25:14;;;;;;;2.05;0.70;;;;;;;;;;5122775;28;20194;-65
2021/12/29 04:27:41;;;;;;;1.17;0.85;;;;;;;;;;5121918;28;20215;-65
2021/12/29 04:30:07;;;;;;;2.53;0.75;;;;;;;;;;5122729;28;20214;-65
2021/12/29 04:32:34;;;;;;;2.78;1.10;;;;;;;;;;5122612;28;20195;-65
2021/12/29 04:35:00;;;;;;;1.52;0.52;;;;;;;;;;5122488;28;20511;-65
2021/12/29 04:37:27;;;;;;;0.63;0.60;;;;;;;;;;5122866;28;20199;-65
2021/12/29 04:39:55;;;;;;;3.72;0.85;;;;;;;;;;5122594;28;20372;-65
2021/12/29 04:42:21;;;;;;;1.80;0.80;;;;;;;;;;5122797;28;20195;-65
2021/12/29 04:44:47;;;;;;;0.70;0.60;;;;;;;;;;5122419;28;20546;-65
2021/12/29 04:47:14;;;;;;;2.45;0.95;;;;;;;;;;5122300;28;20222;-65
2021/12/29 04:49:42;;;;;;;1.02;0.60;;;;;;;;;;5122266;28;20195;-65
2021/12/29 04:52:10;;;;;;;0.50;0.50;;;;;;;;;;5122490;28;20197;-65
2021/12/29 04:54:37;;;;;;;2.38;0.80;;;;;;;;;;5122178;28;20201;-65
2021/12/29 04:57:06;;;;;;;0.93;0.90;;;;;;;;;;5122268;28;20400;-65
2021/12/29 04:59:32;;;;;;;3.97;1.15;;;;;;;;;;5122344;28;20203;-65
2021/12/29 05:01:58;;;;;;;3.58;1.60;;;;;;;;;;5122743;28;20522;-65
2021/12/29 05:04:32;;;;;;;5.40;3.15;;;;;;;;;;5122557;28;20544;-65
2021/12/29 05:09:42;;;;;;;9.57;6.10;;;;;;;;;;5122402;28;20187;-65
2021/12/29 05:12:10;;;;;;;8.05;5.53;;;;;;;;;;5122351;28;20195;-65
2021/12/29 05:14:37;;;;;;;8.45;5.53;;;;;;;;;;5121907;28;20199;-65
2021/12/29 05:17:05;;;;;;;6.47;4.30;;;;;;;;;;5122222;28;20191;-65
2021/12/29 05:19:32;;;;;;;8.02;4.82;;;;;;;;;;5122457;28;20387;-65
2021/12/29 05:21:58;;;;;;;4.35;3.38;;;;;;;;;;5122013;28;20195;-65
2021/12/29 05:24:24;;;;;;;3.80;2.38;;;;;;;;;;5122403;28;20195;-65
2021/12/29 05:26:51;;;;;;;5.03;3.30;;;;;;;;;;5121838;28;20211;-65
2021/12/29 05:29:19;;;;;;;3.90;3.30;;;;;;;;;;5122512;28;20348;-65
2021/12/29 05:31:45;;;;;;;4.38;3.13;;;;;;;;;;5122277;28;20524;-65
2021/12/29 05:34:11;;;;;;;2.47;2.28;;;;;;;;;;5122053;28;20203;-65
2021/12/29 05:36:38;;;;;;;3.20;2.58;;;;;;;;;;5121709;28;20491;-65
2021/12/29 05:39:04;;;;;;;3.42;2.50;;;;;;;;;;5122884;28;20195;-65
2021/12/29 05:41:31;;;;;;;2.67;2.38;;;;;;;;;;5125569;28;20195;-65
2021/12/29 05:43:57;;;;;;;3.78;2.40;;;;;;;;;;5125476;28;20203;-65
2021/12/29 05:46:25;;;;;;;2.28;1.92;;;;;;;;;;5125185;28;20215;-65
2021/12/29 05:48:51;;;;;;;3.55;2.08;;;;;;;;;;5125185;28;20269;-65
2021/12/29 05:51:18;;;;;;;3.22;2.17;;;;;;;;;;5125704;28;20195;-65
2021/12/29 05:53:44;;;;;;;2.70;2.15;;;;;;;;;;5125693;28;20517;-65
2021/12/29 05:56:11;;;;;;;2.28;2.10;;;;;;;;;;5125214;28;20206;-65
2021/12/29 05:58:38;;;;;;;4.63;1.80;;;;;;;;;;5125338;28;20203;-65
2021/12/29 06:01:05;;;;;;;2.58;2.00;;;;;;;;;;5125491;28;20494;-65
2021/12/29 06:03:32;;;;;;;3.05;1.45;;;;;;;;;;5125429;28;20195;-65
2021/12/29 06:05:59;;;;;;;1.63;1.52;;;;;;;;;;5124977;28;20521;-65
2021/12/29 06:08:25;;;;;;;2.22;1.67;;;;;;;;;;5125227;28;20219;-65
2021/12/29 06:10:52;;;;;;;2.35;1.75;;;;;;;;;;5125141;28;20388;-65
2021/12/29 06:13:18;;;;;;;2.40;2.30;;;;;;;;;;5125022;28;20199;-65
2021/12/29 06:15:44;;;;;;;2.35;1.67;;;;;;;;;;5124869;28;20203;-65
2021/12/29 06:18:11;;;;;;;1.60;1.40;;;;;;;;;;5124836;28;20187;-65
2021/12/29 06:20:39;;;;;;;1.40;1.30;;;;;;;;;;5124785;28;20195;-65
2021/12/29 06:23:06;;;;;;;1.60;1.15;;;;;;;;;;5124937;28;20524;-65
2021/12/29 06:25:33;;;;;;;2.28;0.90;;;;;;;;;;5124767;28;20230;-65
2021/12/29 06:27:59;;;;;;;0.88;0.73;;;;;;;;;;5124752;28;20237;-65
2021/12/29 06:30:26;;;;;;;2.50;0.70;;;;;;;;;;5124918;28;20194;-65
2021/12/29 06:32:52;;;;;;;2.75;0.75;;;;;;;;;;5124607;28;20195;-65
2021/12/29 06:35:19;;;;;;;1.52;0.68;;;;;;;;;;5124709;28;20414;-65
2021/12/29 06:37:47;;;;;;;2.28;0.77;;;;;;;;;;5124545;28;20191;-65
2021/12/29 06:40:14;;;;;;;2.75;1.15;;;;;;;;;;5124423;28;20201;-65
2021/12/29 06:42:40;;;;;;;1.17;1.00;;;;;;;;;;5124727;28;20194;-65
2021/12/29 06:45:07;;;;;;;2.50;0.90;;;;;;;;;;5124023;28;20215;-65
2021/12/29 06:47:34;;;;;;;2.78;1.50;;;;;;;;;;5124240;28;20223;-65
2021/12/29 06:50:00;;;;;;;1.55;1.38;;;;;;;;;;5123788;28;20236;-65
2021/12/29 06:52:27;;;;;;;3.45;1.20;;;;;;;;;;5124181;28;20195;-65
2021/12/29 06:54:54;;;;;;;2.95;1.90;;;;;;;;;;5123955;28;20195;-65
2021/12/29 06:57:21;;;;;;;6.57;3.15;;;;;;;;;;5124142;27;20381;-66
2021/12/29 06:59:47;;;;;;;7.88;2.47;;;;;;;;;;5123896;28;20404;-66
2021/12/29 07:02:15;;;;;;;3.53;2.33;;;;;;;;;;5124297;28;20203;-66
2021/12/29 07:04:41;;;;;;;3.67;1.90;;;;;;;;;;5123993;28;20195;-65
2021/12/29 07:07:08;;;;;;;4.82;1.30;;;;;;;;;;5124108;28;20219;-65
2021/12/29 07:09:34;;;;;;;4.75;1.63;;;;;;;;;;5124035;28;20526;-66
2021/12/29 07:12:02;;;;;;;2.30;1.10;;;;;;;;;;5123832;28;20202;-66
2021/12/29 07:14:29;;;;;;;2.70;0.90;;;;;;;;;;5123510;28;20194;-66
2021/12/29 07:16:55;;;;;;;3.00;0.90;;;;;;;;;;5123970;28;20399;-66
2021/12/29 07:19:22;;;;;;;3.08;1.13;;;;;;;;;;5123978;28;20203;-66
2021/12/29 07:21:48;;;;;;;1.75;0.70;;;;;;;;;;5123882;28;20241;-66
2021/12/29 07:24:16;;;;;;;3.53;0.80;;;;;;;;;;5123724;28;20202;-66
2021/12/29 07:26:43;;;;;;;1.33;0.70;;;;;;;;;;5123547;28;20194;-66
2021/12/29 07:29:10;;;;;;;1.50;0.60;;;;;;;;;;5123710;28;20195;-66
2021/12/29 07:31:37;;;;;;;0.93;0.80;;;;;;;;;;5123773;28;20194;-66
2021/12/29 07:34:04;;;;;;;3.60;0.98;;;;;;;;;;5123538;28;20199;-66
2021/12/29 07:36:30;;;;;;;0.80;0.80;;;;;;;;;;5123470;28;20195;-66
2021/12/29 07:38:57;;;;;;;1.48;1.05;;;;;;;;;;5123461;28;20494;-66
2021/12/29 07:41:23;;;;;;;2.40;1.17;;;;;;;;;;5123326;28;20426;-66
2021/12/29 07:43:51;;;;;;;1.13;0.70;;;;;;;;;;5123284;28;20236;-66
2021/12/29 07:46:19;;;;;;;2.30;0.68;;;;;;;;;;5123188;28;20441;-66
2021/12/29 07:48:46;;;;;;;0.75;0.75;;;;;;;;;;5123222;28;20264;-66
2021/12/29 07:51:15;;;;;;;1.63;1.10;;;;;;;;;;5123315;28;20195;-66
2021/12/29 07:53:41;;;;;;;2.42;0.90;;;;;;;;;;5123080;28;20225;-66
2021/12/29 07:56:09;;;;;;;3.03;1.27;;;;;;;;;;5123000;28;20383;-65
2021/12/29 07:58:35;;;;;;;3.13;1.20;;;;;;;;;;5123044;28;20198;-66
2021/12/29 08:01:02;;;;;;;1.98;0.88;;;;;;;;;;5122932;28;20361;-65
2021/12/29 08:03:30;;;;;;;3.92;1.10;;;;;;;;;;5122893;28;20546;-65
2021/12/29 08:05:56;;;;;;;2.40;1.33;;;;;;;;;;5122814;28;20507;-66
2021/12/29 08:08:23;;;;;;;1.40;1.30;;;;;;;;;;5122818;28;20530;-66
2021/12/29 08:10:49;;;;;;;1.88;1.00;;;;;;;;;;5123091;28;20195;-66
2021/12/29 08:13:16;;;;;;;2.67;1.30;;;;;;;;;;5123195;28;20220;-66
2021/12/29 08:15:42;;;;;;;3.40;1.23;;;;;;;;;;5122612;28;20202;-66
2021/12/29 08:18:09;;;;;;;2.80;1.23;;;;;;;;;;5123111;28;20201;-66
2021/12/29 08:20:37;;;;;;;2.58;1.38;;;;;;;;;;5122942;28;20394;-66
2021/12/29 08:23:04;;;;;;;1.70;1.40;;;;;;;;;;5122707;28;20209;-65
2021/12/29 08:25:30;;;;;;;2.13;2.00;;;;;;;;;;5122592;28;20227;-65
2021/12/29 08:27:56;;;;;;;2.25;1.58;;;;;;;;;;5122702;28;20214;-65
2021/12/29 08:30:23;;;;;;;2.70;1.80;;;;;;;;;;5122996;28;20218;-65
2021/12/29 08:32:50;;;;;;;1.45;1.10;;;;;;;;;;5122666;28;20495;-65
2021/12/29 08:35:16;;;;;;;1.70;1.48;;;;;;;;;;5122436;28;20195;-65
2021/12/29 08:37:44;;;;;;;2.22;1.27;;;;;;;;;;5122854;28;20373;-65
2021/12/29 08:40:11;;;;;;;3.05;1.20;;;;;;;;;;5122812;28;20203;-65
2021/12/29 08:42:39;;;;;;;3.88;1.23;;;;;;;;;;5122525;28;20195;-65
2021/12/29 08:45:06;;;;;;;2.80;1.38;;;;;;;;;;5122151;28;20215;-65
2021/12/29 08:47:32;;;;;;;1.98;1.48;;;;;;;;;;5122616;28;20222;-65
2021/12/29 08:49:58;;;;;;;3.20;1.42;;;;;;;;;;5122395;28;20394;-65
2021/12/29 08:52:25;;;;;;;1.63;1.25;;;;;;;;;;5121857;28;20195;-65
2021/12/29 08:54:53;;;;;;;3.38;1.33;;;;;;;;;;5122173;28;20195;-65
2021/12/29 08:57:19;;;;;;;2.58;1.15;;;;;;;;;;5122113;28;20203;-65
2021/12/29 08:59:45;;;;;;;2.75;1.10;;;;;;;;;;5122410;28;20393;-65
2021/12/29 09:02:12;;;;;;;2.35;1.20;;;;;;;;;;5121875;28;20202;-65
2021/12/29 09:04:38;;;;;;;0.90;0.90;;;;;;;;;;5122102;28;20190;-65
2021/12/29 09:07:05;;;;;;;0.88;0.88;;;;;;;;;;5121549;28;20195;-65
2021/12/29 09:09:31;;;;;;;2.30;1.17;;;;;;;;;;5121466;28;20219;-65
2021/12/29 09:11:59;;;;;;;2.10;0.85;;;;;;;;;;5112989;28;20207;-54
2021/12/29 09:14:26;;;;;;;4.50;1.13;;;;;;;;;;5118746;28;20216;-53
2021/12/29 09:16:52;;;;;;;3.03;1.10;;;;;;;;;;5114383;27;20538;-53
2021/12/29 09:19:18;;;;;;;2.80;1.05;;;;;;;;;;5099523;28;20210;-55
2021/12/29 09:21:47;;;;;;;1.65;1.38;;;;;;;;;;5099234;28;20215;-53
2021/12/29 09:24:16;;;;;;;3.35;1.63;;;;;;;;;;5099770;28;20208;-54
2021/12/29 09:26:42;;;;;;;2.85;1.77;;;;;;;;;;5099612;28;20215;-54
2021/12/29 09:29:10;;;;;;;4.75;1.35;;;;;;;;;;5121716;27;20233;-54
2021/12/29 09:31:36;;;;;;;7.03;1.60;;;;;;;;;;5140059;27;20283;-53
2021/12/29 09:34:03;;;;;;;5.32;3.90;;;;;;;;;;5140419;27;20206;-52
2021/12/29 09:36:29;;;;;;;8.52;2.70;;;;;;;;;;5138734;27;20213;-54
2021/12/29 09:38:56;;;;;;;5.63;2.20;;;;;;;;;;5137876;27;20217;-54
2021/12/29 09:41:22;;;;;;;4.75;2.33;;;;;;;;;;5119430;28;20207;-54
2021/12/29 09:43:49;;;;;;;6.28;1.70;;;;;;;;;;5118750;28;20207;-54
2021/12/29 09:46:17;;;;;;;2.92;1.85;;;;;;;;;;5119071;28;20223;-55
2021/12/29 09:48:45;;;;;;;1.90;1.80;;;;;;;;;;5119544;28;20238;-54
2021/12/29 09:51:12;;;;;;;3.60;1.70;;;;;;;;;;5119190;28;20213;-53
2021/12/29 09:53:38;;;;;;;2.60;1.85;;;;;;;;;;5118979;28;20207;-52
2021/12/29 09:56:05;;;;;;;3.97;1.73;;;;;;;;;;5119286;28;20510;-53
2021/12/29 09:58:31;;;;;;;3.00;1.55;;;;;;;;;;5119641;28;20211;-53
2021/12/29 10:01:04;;;;;;;4.80;1.35;;;;;;;;;;5119669;28;20206;-52
2021/12/29 10:03:33;;;;;;;5.95;1.65;;;;;;;;;;5119640;28;20208;-52
2021/12/29 10:06:00;;;;;;;4.68;1.90;;;;;;;;;;5133710;27;20198;-53
2021/12/29 10:08:27;;;;;;;2.33;1.00;;;;;;;;;;5140383;27;20237;-53
2021/12/29 10:10:55;;;;;;;2.58;1.10;;;;;;;;;;5139940;27;20206;-52
2021/12/29 10:13:22;;;;;;;2.88;1.00;;;;;;;;;;5140030;27;20210;-54
2021/12/29 10:15:51;;;;;;;3.00;1.38;;;;;;;;;;5120850;27;20214;-53
2021/12/29 10:18:18;;;;;;;3.17;1.17;;;;;;;;;;5119492;28;20210;-52
2021/12/29 10:20:47;;;;;;;5.55;1.20;;;;;;;;;;5119351;28;20406;-54
2021/12/29 10:23:16;;;;;;;1.88;1.20;;;;;;;;;;5119072;28;20211;-52
2021/12/29 10:25:43;;;;;;;5.60;1.30;;;;;;;;;;5118724;28;20515;-52
2021/12/29 10:28:18;;;;;;;2.28;1.17;;;;;;;;;;5119220;28;20218;-52
2021/12/29 10:30:44;;;;;;;3.78;1.23;;;;;;;;;;5119222;28;20214;-53
2021/12/29 10:33:11;;;;;;;4.05;1.55;;;;;;;;;;5119120;28;20198;-52
2021/12/29 10:35:38;;;;;;;2.67;1.40;;;;;;;;;;5119052;28;20213;-52
2021/12/29 10:38:13;;;;;;;2.65;1.30;;;;;;;;;;5119261;28;20214;-53
2021/12/29 10:40:39;;;;;;;6.35;3.28;;;;;;;;;;5118890;28;20214;-52
2021/12/29 10:43:06;;;;;;;3.60;1.55;;;;;;;;;;5118970;28;20206;-53
2021/12/29 10:45:33;;;;;;;3.58;2.30;;;;;;;;;;5118537;28;20222;-52
2021/12/29 10:48:00;;;;;;;4.32;1.45;;;;;;;;;;5118850;28;20207;-52
2021/12/29 10:50:27;;;;;;;2.58;1.60;;;;;;;;;;5118849;28;20391;-54
2021/12/29 10:52:55;;;;;;;2.53;1.83;;;;;;;;;;5118548;28;20214;-54
2021/12/29 10:55:31;;;;;;;3.58;1.40;;;;;;;;;;5118419;28;20511;-53
2021/12/29 10:58:01;;;;;;;3.70;2.90;;;;;;;;;;5118822;28;20206;-52
2021/12/29 11:00:28;;;;;;;3.80;1.30;;;;;;;;;;5118618;28;20207;-53
2021/12/29 11:02:57;;;;;;;2.10;1.25;;;;;;;;;;5118392;28;20214;-54
2021/12/29 11:05:23;;;;;;;2.63;0.95;;;;;;;;;;5127253;27;20430;-53
2021/12/29 11:07:50;;;;;;;3.63;1.20;;;;;;;;;;5138764;27;20515;-54
2021/12/29 11:10:17;;;;;;;3.22;0.90;;;;;;;;;;5138933;27;20207;-54
2021/12/29 11:12:46;;;;;;;10.10;4.85;;;;;;;;;;5138930;27;20403;-53
2021/12/29 11:15:17;;;;;;;3.47;1.80;;;;;;;;;;5121505;27;20214;-52
2021/12/29 11:17:43;;;;;;;2.35;1.17;;;;;;;;;;5119463;28;20199;-53
2021/12/29 11:20:10;;;;;;;8.32;3.72;;;;;;;;;;5123747;28;20199;-53
2021/12/29 11:22:39;;;;;;;2.72;1.10;;;;;;;;;;5123864;28;20195;-53
2021/12/29 11:25:06;;;;;;;3.80;1.30;;;;;;;;;;5123467;28;20201;-53
2021/12/29 11:27:35;;;;;;;1.45;1.08;;;;;;;;;;5123248;28;20203;-53
2021/12/29 11:30:04;;;;;;;2.78;1.40;;;;;;;;;;5122910;28;20222;-53
2021/12/29 11:32:32;;;;;;;3.75;2.78;;;;;;;;;;5115077;28;20199;-53
2021/12/29 11:35:03;;;;;;;3.15;0.98;;;;;;;;;;5104214;28;20441;-55
2021/12/29 11:37:30;;;;;;;4.97;1.48;;;;;;;;;;5117138;28;20371;-55
2021/12/29 11:39:56;;;;;;;4.13;1.40;;;;;;;;;;5122219;28;20195;-53
2021/12/29 11:42:23;;;;;;;11.85;2.85;;;;;;;;;;5123417;28;20232;-54
2021/12/29 11:44:49;;;;;;;18.55;3.00;;;;;;;;;;5122842;28;20215;-55
2021/12/29 11:47:17;;;;;;;2.75;0.80;;;;;;;;;;5123291;28;20195;-53
2021/12/29 11:49:44;;;;;;;2.35;1.05;;;;;;;;;;5122002;28;20400;-53
2021/12/29 11:52:14;;;;;;;3.45;0.73;;;;;;;;;;5122949;28;20201;-54
2021/12/29 11:54:48;;;;;;;5.00;1.10;;;;;;;;;;5122954;28;20195;-53
2021/12/29 11:57:15;;;;;;;0.70;0.70;;;;;;;;;;5122998;28;20195;-53
2021/12/29 11:59:42;;;;;;;21.17;3.05;;;;;;;;;;5122749;28;20202;-54
2021/12/29 12:02:09;;;;;;;3.45;1.25;;;;;;;;;;5123293;28;20210;-54
2021/12/29 12:04:37;;;;;;;5.80;1.48;;;;;;;;;;5122769;28;20203;-54
2021/12/29 12:07:04;;;;;;;3.50;1.30;;;;;;;;;;5122580;28;20213;-53
2021/12/29 12:09:44;;;;;;;12.55;1.48;;;;;;;;;;5122469;28;20214;-54
2021/12/29 12:12:11;;;;;;;14.48;2.38;;;;;;;;;;5122659;28;20201;-52
2021/12/29 12:14:44;;;;;;;4.32;1.23;;;;;;;;;;5122500;28;20511;-53
2021/12/29 12:17:12;;;;;;;7.50;3.47;;;;;;;;;;5122705;28;20531;-53
2021/12/29 12:19:40;;;;;;;11.18;1.80;;;;;;;;;;5123020;28;20478;-53
2021/12/29 12:22:08;;;;;;;33.53;15.55;;;;;;;;;;5122637;28;20195;-53
2021/12/29 12:24:36;;;;;;;40.33;17.33;;;;;;;;;;5122260;28;20202;-53
2021/12/29 12:27:03;;;;;;;25.85;11.95;;;;;;;;;;5122524;28;20195;-53
2021/12/29 12:29:30;;;;;;;8.20;3.92;;;;;;;;;;5122327;28;20210;-54
2021/12/29 12:32:01;;;;;;;12.82;3.33;;;;;;;;;;5122625;28;20217;-53
2021/12/29 12:34:27;;;;;;;13.57;4.65;;;;;;;;;;5122353;28;20195;-53
2021/12/29 12:36:55;;;;;;;118.20;19.17;;;;;;;;;;5122386;28;20385;-53
2021/12/29 12:39:22;;;;;;;19.85;5.15;;;;;;;;;;5122490;28;20191;-54
2021/12/29 12:41:53;;;;;;;14.30;2.15;;;;;;;;;;5122509;28;20202;-54
2021/12/29 12:44:29;;;;;;;43.35;19.90;;;;;;;;;;5122561;28;20201;-55
2021/12/29 12:46:56;;;;;;;27.73;13.55;;;;;;;;;;5122206;28;20195;-55
2021/12/29 12:49:25;;;;;;;10.85;8.10;;;;;;;;;;5125450;28;20215;-55
2021/12/29 12:51:57;;;;;;;7.38;2.65;;;;;;;;;;5126403;28;20195;-53
2021/12/29 12:54:25;;;;;;;7.70;1.55;;;;;;;;;;5126330;28;20195;-54
2021/12/29 12:56:52;;;;;;;7.05;1.10;;;;;;;;;;5126316;28;20194;-53
2021/12/29 12:59:18;;;;;;;6.95;2.33;;;;;;;;;;5126161;28;20199;-54
2021/12/29 13:01:46;;;;;;;5.05;2.08;;;;;;;;;;5126192;28;20195;-53
2021/12/29 13:04:15;;;;;;;7.35;2.08;;;;;;;;;;5126463;28;20491;-54
2021/12/29 13:06:42;;;;;;;8.75;1.27;;;;;;;;;;5125852;28;20203;-53
2021/12/29 13:09:10;;;;;;;7.50;2.97;;;;;;;;;;5126190;28;20211;-53
2021/12/29 13:11:37;;;;;;;3.22;2.03;;;;;;;;;;5126410;28;20195;-53
2021/12/29 13:14:05;;;;;;;9.13;1.95;;;;;;;;;;5126175;28;20203;-54
2021/12/29 13:16:33;;;;;;;9.10;1.70;;;;;;;;;;5126115;28;20202;-53
2021/12/29 13:19:00;;;;;;;3.67;1.42;;;;;;;;;;5126067;28;20518;-55
2021/12/29 13:21:27;;;;;;;3.83;1.25;;;;;;;;;;5126255;28;20446;-55
2021/12/29 13:23:58;;;;;;;7.15;1.33;;;;;;;;;;5126284;28;20217;-55
2021/12/29 13:26:28;;;;;;;147.77;14.75;;;;;;;;;;5125960;28;20526;-53
2021/12/29 13:28:54;;;;;;;23.23;2.72;;;;;;;;;;5125777;28;20214;-55
2021/12/29 13:31:21;;;;;;;12.82;2.60;;;;;;;;;;5125730;28;20203;-55
2021/12/29 13:33:49;;;;;;;4.07;1.40;;;;;;;;;;5125607;28;20195;-54
2021/12/29 13:36:17;;;;;;;1.92;1.27;;;;;;;;;;5125550;28;20195;-53
2021/12/29 13:38:44;;;;;;;5.50;1.52;;;;;;;;;;5125551;28;20195;-55
2021/12/29 13:41:11;;;;;;;6.35;1.48;;;;;;;;;;5125770;28;20195;-53
2021/12/29 13:43:40;;;;;;;7.40;1.40;;;;;;;;;;5125426;28;20202;-54
2021/12/29 13:46:09;;;;;;;2.42;2.22;;;;;;;;;;5125031;28;20222;-53
2021/12/29 13:48:36;;;;;;;3.97;1.60;;;;;;;;;;5125645;28;20194;-53
2021/12/29 13:51:04;;;;;;;2.78;1.02;;;;;;;;;;5125320;28;20191;-53
2021/12/29 13:53:31;;;;;;;3.20;1.30;;;;;;;;;;5125450;28;20195;-53
2021/12/29 13:56:04;;;;;;;30.08;4.47;;;;;;;;;;5125056;28;20202;-54
2021/12/29 13:58:30;;;;;;;147.43;12.00;;;;;;;;;;5124931;28;20199;-53
2021/12/29 14:00:58;;;;;;;18.85;2.75;;;;;;;;;;5124113;28;20198;-55
2021/12/29 14:03:25;;;;;;;5.80;2.10;;;;;;;;;;5125585;28;20202;-54
2021/12/29 14:05:51;;;;;;;3.95;2.05;;;;;;;;;;5124827;28;20194;-54
2021/12/29 14:08:18;;;;;;;6.38;2.35;;;;;;;;;;5125286;28;20195;-55
2021/12/29 14:10:46;;;;;;;3.13;1.63;;;;;;;;;;5125405;28;20219;-54
2021/12/29 14:13:13;;;;;;;4.97;1.60;;;;;;;;;;5125276;28;20191;-54
2021/12/29 14:15:40;;;;;;;3.85;1.50;;;;;;;;;;5124574;28;20195;-54
2021/12/29 14:18:19;;;;;;;3.65;1.50;;;;;;;;;;5124947;28;20199;-54
2021/12/29 14:20:46;;;;;;;1.90;1.38;;;;;;;;;;5124884;28;20267;-53
2021/12/29 14:23:12;;;;;;;1.92;1.20;;;;;;;;;;5124600;28;20195;-55
2021/12/29 14:25:40;;;;;;;2.53;1.13;;;;;;;;;;5124483;28;20195;-55
2021/12/29 14:28:13;;;;;;;2.47;1.50;;;;;;;;;;5125064;28;20203;-54
2021/12/29 14:30:42;;;;;;;4.18;1.27;;;;;;;;;;5124807;28;20218;-53
2021/12/29 14:33:09;;;;;;;2.25;0.93;;;;;;;;;;5124770;28;20345;-53
2021/12/29 14:35:36;;;;;;;3.15;1.20;;;;;;;;;;5124524;28;20183;-55
2021/12/29 14:38:05;;;;;;;1.40;1.20;;;;;;;;;;5124928;28;20283;-53
2021/12/29 14:40:32;;;;;;;3.40;1.52;;;;;;;;;;5124453;28;20191;-54
2021/12/29 14:43:07;;;;;;;3.80;1.65;;;;;;;;;;5124841;28;20494;-54
2021/12/29 14:45:33;;;;;;;6.72;1.85;;;;;;;;;;5123992;28;20260;-55
2021/12/29 14:48:05;;;;;;;7.47;3.03;;;;;;;;;;5124345;28;20184;-54